CYMO

Moosonee Airport

Moosonee, Ontario, Canada
METAR CYMO 192000Z AUTO 25014G19KT 9SM BKN095 OVC130 25/09 A2984 RMK SLP106 DENSITY ALT 1200FT
Observed Flight Rules
Jun-19 @ 20:00 UTC (11 minutes ago) Visual Flight Rules
Wind Visibility Clouds
250° at 14 knots
 Gusting to 19 knots
9 miles
  • Broken at 9,500' AGL
  • Overcast at 13,000' AGL
Temperatures Readings
Current 25°C / 77°F
Dewpoint 9°C / 48°F
Humidity 36%
Altimeter 29.84" Hg
Pressure 1010.6 hPa
Elevation 10
METAR CYMO 192000Z AUTO 25014G19KT 9SM BKN095 OVC130 25/09 A2984 RMK SLP106 DENSITY ALT 1200FT
Observed Flight Rules
Jun-19 @ 20:00 UTC
(11 minutes ago)
VFR
Wind Visibility
250° at 14 knots
 Gusting to 19 knots
9 miles
Clouds
  • Broken at 9,500' AGL
  • Overcast at 13,000' AGL
Temperature Dewpoint
25°C / 77°F 9°C / 48°F
Humidity Altimeter Pressure
36% 29.84" Hg 1010.6 hPa